sensor_id;sensor_type;location;lat;lon;timestamp;P1;durP1;ratioP1;P2;durP2;ratioP2
22632;SDS011;11483;55.828;37.488;2023-07-20T00:01:28;4.05;;;1.38;;
22632;SDS011;11483;55.828;37.488;2023-07-20T00:03:54;4.80;;;1.53;;
22632;SDS011;11483;55.828;37.488;2023-07-20T00:06:23;5.20;;;1.77;;
22632;SDS011;11483;55.828;37.488;2023-07-20T00:08:54;4.95;;;1.70;;
22632;SDS011;11483;55.828;37.488;2023-07-20T00:11:21;4.43;;;1.58;;
22632;SDS011;11483;55.828;37.488;2023-07-20T00:13:53;6.68;;;1.60;;
22632;SDS011;11483;55.828;37.488;2023-07-20T00:16:18;7.70;;;1.73;;
22632;SDS011;11483;55.828;37.488;2023-07-20T00:18:44;5.60;;;1.70;;
22632;SDS011;11483;55.828;37.488;2023-07-20T00:21:10;2.95;;;1.50;;
22632;SDS011;11483;55.828;37.488;2023-07-20T00:23:37;5.43;;;1.52;;
22632;SDS011;11483;55.828;37.488;2023-07-20T00:26:03;5.15;;;1.50;;
22632;SDS011;11483;55.828;37.488;2023-07-20T00:28:29;6.18;;;1.70;;
22632;SDS011;11483;55.828;37.488;2023-07-20T00:30:55;7.32;;;1.40;;
22632;SDS011;11483;55.828;37.488;2023-07-20T00:33:20;4.45;;;1.83;;
22632;SDS011;11483;55.828;37.488;2023-07-20T00:35:46;6.00;;;1.40;;
22632;SDS011;11483;55.828;37.488;2023-07-20T00:38:12;6.82;;;1.60;;
22632;SDS011;11483;55.828;37.488;2023-07-20T00:40:39;4.95;;;1.50;;
22632;SDS011;11483;55.828;37.488;2023-07-20T00:43:06;5.50;;;1.50;;
22632;SDS011;11483;55.828;37.488;2023-07-20T00:45:32;5.75;;;1.67;;
22632;SDS011;11483;55.828;37.488;2023-07-20T00:47:59;6.25;;;1.30;;
22632;SDS011;11483;55.828;37.488;2023-07-20T00:50:26;7.50;;;1.60;;
22632;SDS011;11483;55.828;37.488;2023-07-20T00:52:57;3.10;;;1.48;;
22632;SDS011;11483;55.828;37.488;2023-07-20T00:55:23;3.90;;;1.50;;
22632;SDS011;11483;55.828;37.488;2023-07-20T00:57:50;6.80;;;1.48;;
22632;SDS011;11483;55.828;37.488;2023-07-20T01:00:16;6.68;;;1.60;;
22632;SDS011;11483;55.828;37.488;2023-07-20T01:02:43;3.93;;;1.50;;
22632;SDS011;11483;55.828;37.488;2023-07-20T01:05:09;5.90;;;1.40;;
22632;SDS011;11483;55.828;37.488;2023-07-20T01:11:06;4.75;;;1.50;;
22632;SDS011;11483;55.828;37.488;2023-07-20T01:14:00;5.45;;;1.70;;
22632;SDS011;11483;55.828;37.488;2023-07-20T01:16:27;5.27;;;1.50;;
22632;SDS011;11483;55.828;37.488;2023-07-20T01:18:53;2.45;;;1.25;;
22632;SDS011;11483;55.828;37.488;2023-07-20T01:21:24;6.43;;;1.75;;
22632;SDS011;11483;55.828;37.488;2023-07-20T01:32:04;1.95;;;1.25;;
22632;SDS011;11483;55.828;37.488;2023-07-20T01:34:34;3.85;;;1.35;;
22632;SDS011;11483;55.828;37.488;2023-07-20T01:37:01;4.25;;;1.63;;
22632;SDS011;11483;55.828;37.488;2023-07-20T01:39:28;4.75;;;1.40;;
22632;SDS011;11483;55.828;37.488;2023-07-20T01:41:55;5.93;;;1.52;;
22632;SDS011;11483;55.828;37.488;2023-07-20T01:44:21;5.80;;;1.27;;
22632;SDS011;11483;55.828;37.488;2023-07-20T01:46:47;5.17;;;1.40;;
22632;SDS011;11483;55.828;37.488;2023-07-20T01:49:13;4.32;;;1.23;;
22632;SDS011;11483;55.828;37.488;2023-07-20T01:51:39;5.38;;;1.48;;
22632;SDS011;11483;55.828;37.488;2023-07-20T01:54:05;2.85;;;1.50;;
22632;SDS011;11483;55.828;37.488;2023-07-20T01:56:31;4.57;;;1.70;;
22632;SDS011;11483;55.828;37.488;2023-07-20T01:58:57;6.18;;;1.35;;
22632;SDS011;11483;55.828;37.488;2023-07-20T02:01:23;5.33;;;1.50;;
22632;SDS011;11483;55.828;37.488;2023-07-20T02:03:49;6.38;;;1.60;;
22632;SDS011;11483;55.828;37.488;2023-07-20T02:06:14;5.00;;;1.40;;
22632;SDS011;11483;55.828;37.488;2023-07-20T02:08:40;5.38;;;1.70;;
22632;SDS011;11483;55.828;37.488;2023-07-20T02:11:06;6.73;;;1.30;;
22632;SDS011;11483;55.828;37.488;2023-07-20T02:13:32;7.70;;;1.65;;
22632;SDS011;11483;55.828;37.488;2023-07-20T02:15:58;5.27;;;1.70;;
22632;SDS011;11483;55.828;37.488;2023-07-20T02:18:24;6.18;;;1.50;;
22632;SDS011;11483;55.828;37.488;2023-07-20T02:20:52;6.45;;;1.40;;
22632;SDS011;11483;55.828;37.488;2023-07-20T02:23:18;2.67;;;1.40;;
22632;SDS011;11483;55.828;37.488;2023-07-20T02:25:44;4.07;;;1.63;;
22632;SDS011;11483;55.828;37.488;2023-07-20T02:28:12;5.67;;;1.77;;
22632;SDS011;11483;55.828;37.488;2023-07-20T02:30:39;4.50;;;1.50;;
22632;SDS011;11483;55.828;37.488;2023-07-20T02:33:05;3.50;;;1.40;;
22632;SDS011;11483;55.828;37.488;2023-07-20T02:35:32;3.30;;;1.60;;
22632;SDS011;11483;55.828;37.488;2023-07-20T02:37:58;3.78;;;1.40;;
22632;SDS011;11483;55.828;37.488;2023-07-20T02:40:24;4.57;;;1.60;;
22632;SDS011;11483;55.828;37.488;2023-07-20T02:42:49;6.38;;;1.67;;
22632;SDS011;11483;55.828;37.488;2023-07-20T02:45:16;8.00;;;1.60;;
22632;SDS011;11483;55.828;37.488;2023-07-20T02:47:42;6.30;;;1.83;;
22632;SDS011;11483;55.828;37.488;2023-07-20T02:50:08;4.82;;;1.45;;
22632;SDS011;11483;55.828;37.488;2023-07-20T02:52:34;4.85;;;1.58;;
22632;SDS011;11483;55.828;37.488;2023-07-20T02:55:00;5.18;;;1.70;;
22632;SDS011;11483;55.828;37.488;2023-07-20T02:57:26;3.50;;;1.55;;
22632;SDS011;11483;55.828;37.488;2023-07-20T02:59:52;5.07;;;1.50;;
22632;SDS011;11483;55.828;37.488;2023-07-20T03:02:18;3.65;;;1.50;;
22632;SDS011;11483;55.828;37.488;2023-07-20T03:04:44;5.22;;;1.70;;
22632;SDS011;11483;55.828;37.488;2023-07-20T03:07:10;3.83;;;1.50;;
22632;SDS011;11483;55.828;37.488;2023-07-20T03:09:36;6.78;;;1.63;;
22632;SDS011;11483;55.828;37.488;2023-07-20T03:12:02;7.00;;;1.80;;
22632;SDS011;11483;55.828;37.488;2023-07-20T03:14:29;5.05;;;1.25;;
22632;SDS011;11483;55.828;37.488;2023-07-20T03:16:55;7.25;;;1.60;;
22632;SDS011;11483;55.828;37.488;2023-07-20T03:19:21;3.67;;;1.50;;
22632;SDS011;11483;55.828;37.488;2023-07-20T03:21:47;5.63;;;1.50;;
22632;SDS011;11483;55.828;37.488;2023-07-20T03:24:13;6.10;;;1.75;;
22632;SDS011;11483;55.828;37.488;2023-07-20T03:26:39;4.80;;;1.80;;
22632;SDS011;11483;55.828;37.488;2023-07-20T03:29:04;5.32;;;1.60;;
22632;SDS011;11483;55.828;37.488;2023-07-20T03:31:31;7.40;;;1.70;;
22632;SDS011;11483;55.828;37.488;2023-07-20T03:33:57;5.28;;;1.48;;
22632;SDS011;11483;55.828;37.488;2023-07-20T03:36:23;2.70;;;1.35;;
22632;SDS011;11483;55.828;37.488;2023-07-20T03:38:49;4.85;;;1.20;;
22632;SDS011;11483;55.828;37.488;2023-07-20T03:41:15;3.00;;;1.30;;
22632;SDS011;11483;55.828;37.488;2023-07-20T03:43:41;6.65;;;1.45;;
22632;SDS011;11483;55.828;37.488;2023-07-20T03:46:07;3.58;;;1.15;;
22632;SDS011;11483;55.828;37.488;2023-07-20T03:48:33;5.28;;;1.60;;
22632;SDS011;11483;55.828;37.488;2023-07-20T03:50:59;4.50;;;1.58;;
22632;SDS011;11483;55.828;37.488;2023-07-20T03:53:25;5.50;;;1.48;;
22632;SDS011;11483;55.828;37.488;2023-07-20T03:55:52;3.92;;;1.10;;
22632;SDS011;11483;55.828;37.488;2023-07-20T03:58:18;4.50;;;1.33;;
22632;SDS011;11483;55.828;37.488;2023-07-20T04:00:45;8.60;;;1.43;;
22632;SDS011;11483;55.828;37.488;2023-07-20T04:03:12;2.85;;;1.33;;
22632;SDS011;11483;55.828;37.488;2023-07-20T04:05:39;6.18;;;1.40;;
22632;SDS011;11483;55.828;37.488;2023-07-20T04:08:05;3.42;;;1.20;;
22632;SDS011;11483;55.828;37.488;2023-07-20T04:10:30;4.97;;;1.50;;
22632;SDS011;11483;55.828;37.488;2023-07-20T04:12:56;5.03;;;1.30;;
22632;SDS011;11483;55.828;37.488;2023-07-20T04:15:22;3.60;;;1.60;;
22632;SDS011;11483;55.828;37.488;2023-07-20T04:17:48;5.57;;;1.20;;
22632;SDS011;11483;55.828;37.488;2023-07-20T04:20:14;3.72;;;1.20;;
22632;SDS011;11483;55.828;37.488;2023-07-20T04:22:40;3.73;;;1.17;;
22632;SDS011;11483;55.828;37.488;2023-07-20T04:25:06;4.28;;;1.30;;
22632;SDS011;11483;55.828;37.488;2023-07-20T04:27:32;3.60;;;1.30;;
22632;SDS011;11483;55.828;37.488;2023-07-20T04:29:58;3.80;;;1.20;;
22632;SDS011;11483;55.828;37.488;2023-07-20T04:32:31;2.90;;;1.00;;
22632;SDS011;11483;55.828;37.488;2023-07-20T04:34:58;2.85;;;1.08;;
22632;SDS011;11483;55.828;37.488;2023-07-20T04:37:24;6.43;;;1.30;;
22632;SDS011;11483;55.828;37.488;2023-07-20T04:39:50;4.07;;;1.05;;
22632;SDS011;11483;55.828;37.488;2023-07-20T04:42:17;2.15;;;0.98;;
22632;SDS011;11483;55.828;37.488;2023-07-20T04:44:43;5.57;;;1.10;;
22632;SDS011;11483;55.828;37.488;2023-07-20T04:47:09;3.13;;;1.10;;
22632;SDS011;11483;55.828;37.488;2023-07-20T04:49:35;3.35;;;1.10;;
22632;SDS011;11483;55.828;37.488;2023-07-20T04:52:01;5.13;;;1.20;;
22632;SDS011;11483;55.828;37.488;2023-07-20T04:54:28;3.33;;;1.13;;
22632;SDS011;11483;55.828;37.488;2023-07-20T04:56:54;3.57;;;1.20;;
22632;SDS011;11483;55.828;37.488;2023-07-20T04:59:20;7.32;;;1.40;;
22632;SDS011;11483;55.828;37.488;2023-07-20T05:01:46;7.30;;;1.15;;
22632;SDS011;11483;55.828;37.488;2023-07-20T05:04:12;6.53;;;1.42;;
22632;SDS011;11483;55.828;37.488;2023-07-20T05:06:38;2.37;;;1.20;;
22632;SDS011;11483;55.828;37.488;2023-07-20T05:09:04;2.45;;;1.10;;
22632;SDS011;11483;55.828;37.488;2023-07-20T05:11:31;3.15;;;1.10;;
22632;SDS011;11483;55.828;37.488;2023-07-20T05:13:57;4.65;;;1.40;;
22632;SDS011;11483;55.828;37.488;2023-07-20T05:16:23;4.03;;;1.00;;
22632;SDS011;11483;55.828;37.488;2023-07-20T05:18:49;4.72;;;1.20;;
22632;SDS011;11483;55.828;37.488;2023-07-20T05:21:15;6.22;;;1.40;;
22632;SDS011;11483;55.828;37.488;2023-07-20T05:23:40;3.87;;;1.10;;
22632;SDS011;11483;55.828;37.488;2023-07-20T05:26:06;2.90;;;1.02;;
22632;SDS011;11483;55.828;37.488;2023-07-20T05:28:32;2.92;;;0.80;;
22632;SDS011;11483;55.828;37.488;2023-07-20T05:30:58;2.17;;;1.05;;
22632;SDS011;11483;55.828;37.488;2023-07-20T05:33:24;1.15;;;0.90;;
22632;SDS011;11483;55.828;37.488;2023-07-20T05:35:50;2.80;;;1.00;;
22632;SDS011;11483;55.828;37.488;2023-07-20T05:38:16;2.72;;;0.90;;
22632;SDS011;11483;55.828;37.488;2023-07-20T05:40:43;4.00;;;1.20;;
22632;SDS011;11483;55.828;37.488;2023-07-20T05:43:10;2.28;;;0.90;;
22632;SDS011;11483;55.828;37.488;2023-07-20T05:45:36;3.92;;;1.08;;
22632;SDS011;11483;55.828;37.488;2023-07-20T05:48:02;2.70;;;0.80;;
22632;SDS011;11483;55.828;37.488;2023-07-20T05:50:28;1.60;;;1.00;;
22632;SDS011;11483;55.828;37.488;2023-07-20T05:52:55;1.40;;;0.90;;
22632;SDS011;11483;55.828;37.488;2023-07-20T05:55:20;3.05;;;1.00;;
22632;SDS011;11483;55.828;37.488;2023-07-20T05:57:46;3.53;;;1.10;;
22632;SDS011;11483;55.828;37.488;2023-07-20T06:00:13;5.15;;;1.10;;
22632;SDS011;11483;55.828;37.488;2023-07-20T06:02:39;2.17;;;0.90;;
22632;SDS011;11483;55.828;37.488;2023-07-20T06:05:06;2.90;;;1.00;;
22632;SDS011;11483;55.828;37.488;2023-07-20T06:07:35;4.00;;;1.00;;
22632;SDS011;11483;55.828;37.488;2023-07-20T06:10:01;3.70;;;0.80;;
22632;SDS011;11483;55.828;37.488;2023-07-20T06:12:27;4.55;;;1.00;;
22632;SDS011;11483;55.828;37.488;2023-07-20T06:14:53;6.43;;;0.97;;
22632;SDS011;11483;55.828;37.488;2023-07-20T06:17:19;2.55;;;1.23;;
22632;SDS011;11483;55.828;37.488;2023-07-20T06:19:46;2.65;;;0.80;;
22632;SDS011;11483;55.828;37.488;2023-07-20T06:22:11;3.38;;;0.82;;
22632;SDS011;11483;55.828;37.488;2023-07-20T06:24:37;5.30;;;0.90;;
22632;SDS011;11483;55.828;37.488;2023-07-20T06:27:03;1.75;;;0.90;;
22632;SDS011;11483;55.828;37.488;2023-07-20T06:29:33;4.25;;;1.10;;
22632;SDS011;11483;55.828;37.488;2023-07-20T06:32:00;5.18;;;1.02;;
22632;SDS011;11483;55.828;37.488;2023-07-20T06:34:26;2.72;;;1.00;;
22632;SDS011;11483;55.828;37.488;2023-07-20T06:36:51;3.10;;;1.00;;
22632;SDS011;11483;55.828;37.488;2023-07-20T06:39:17;2.90;;;1.00;;
22632;SDS011;11483;55.828;37.488;2023-07-20T06:41:43;3.83;;;0.97;;
22632;SDS011;11483;55.828;37.488;2023-07-20T06:44:09;2.97;;;1.02;;
22632;SDS011;11483;55.828;37.488;2023-07-20T06:46:35;1.63;;;0.95;;
22632;SDS011;11483;55.828;37.488;2023-07-20T06:49:01;4.32;;;1.13;;
22632;SDS011;11483;55.828;37.488;2023-07-20T06:51:27;1.67;;;0.80;;
22632;SDS011;11483;55.828;37.488;2023-07-20T06:53:56;3.03;;;0.90;;
22632;SDS011;11483;55.828;37.488;2023-07-20T06:56:22;2.60;;;0.90;;
22632;SDS011;11483;55.828;37.488;2023-07-20T06:58:48;4.15;;;0.80;;
22632;SDS011;11483;55.828;37.488;2023-07-20T07:01:14;1.23;;;0.68;;
22632;SDS011;11483;55.828;37.488;2023-07-20T07:03:40;1.50;;;0.82;;
22632;SDS011;11483;55.828;37.488;2023-07-20T07:06:06;0.95;;;0.70;;
22632;SDS011;11483;55.828;37.488;2023-07-20T07:08:32;2.38;;;0.73;;
22632;SDS011;11483;55.828;37.488;2023-07-20T07:10:58;1.20;;;0.80;;
22632;SDS011;11483;55.828;37.488;2023-07-20T07:13:23;2.17;;;0.70;;
22632;SDS011;11483;55.828;37.488;2023-07-20T07:15:50;4.80;;;0.70;;
22632;SDS011;11483;55.828;37.488;2023-07-20T07:18:16;4.25;;;1.00;;
22632;SDS011;11483;55.828;37.488;2023-07-20T07:20:49;2.77;;;0.73;;
22632;SDS011;11483;55.828;37.488;2023-07-20T07:23:17;4.72;;;0.80;;
22632;SDS011;11483;55.828;37.488;2023-07-20T07:25:43;2.03;;;0.90;;
22632;SDS011;11483;55.828;37.488;2023-07-20T07:28:09;3.30;;;0.80;;
22632;SDS011;11483;55.828;37.488;2023-07-20T07:30:35;2.87;;;0.80;;
22632;SDS011;11483;55.828;37.488;2023-07-20T07:33:01;2.50;;;0.80;;
22632;SDS011;11483;55.828;37.488;2023-07-20T07:35:27;4.20;;;0.90;;
22632;SDS011;11483;55.828;37.488;2023-07-20T07:37:53;2.20;;;0.90;;
22632;SDS011;11483;55.828;37.488;2023-07-20T07:40:18;3.47;;;0.80;;
22632;SDS011;11483;55.828;37.488;2023-07-20T07:42:44;3.55;;;0.90;;
22632;SDS011;11483;55.828;37.488;2023-07-20T07:45:10;3.00;;;0.82;;
22632;SDS011;11483;55.828;37.488;2023-07-20T07:47:36;2.22;;;0.82;;
22632;SDS011;11483;55.828;37.488;2023-07-20T07:50:02;1.67;;;0.80;;
22632;SDS011;11483;55.828;37.488;2023-07-20T07:52:28;10.55;;;0.88;;
22632;SDS011;11483;55.828;37.488;2023-07-20T07:54:54;3.85;;;0.93;;
22632;SDS011;11483;55.828;37.488;2023-07-20T07:57:20;2.38;;;1.00;;
22632;SDS011;11483;55.828;37.488;2023-07-20T07:59:46;5.43;;;0.93;;
22632;SDS011;11483;55.828;37.488;2023-07-20T08:02:12;3.67;;;1.02;;
22632;SDS011;11483;55.828;37.488;2023-07-20T08:04:38;4.53;;;1.00;;
22632;SDS011;11483;55.828;37.488;2023-07-20T08:07:04;3.35;;;0.85;;
22632;SDS011;11483;55.828;37.488;2023-07-20T08:09:30;4.78;;;0.82;;
22632;SDS011;11483;55.828;37.488;2023-07-20T08:11:56;3.63;;;0.93;;
22632;SDS011;11483;55.828;37.488;2023-07-20T08:14:22;2.20;;;1.00;;
22632;SDS011;11483;55.828;37.488;2023-07-20T08:16:48;1.63;;;0.75;;
22632;SDS011;11483;55.828;37.488;2023-07-20T08:19:13;0.95;;;0.70;;
22632;SDS011;11483;55.828;37.488;2023-07-20T08:21:39;1.02;;;0.77;;
22632;SDS011;11483;55.828;37.488;2023-07-20T08:24:05;2.70;;;1.23;;
22632;SDS011;11483;55.828;37.488;2023-07-20T08:26:32;3.88;;;1.00;;
22632;SDS011;11483;55.828;37.488;2023-07-20T08:28:58;2.17;;;1.05;;
22632;SDS011;11483;55.828;37.488;2023-07-20T08:31:23;4.10;;;1.08;;
22632;SDS011;11483;55.828;37.488;2023-07-20T08:33:49;1.75;;;0.77;;
22632;SDS011;11483;55.828;37.488;2023-07-20T08:36:16;3.30;;;1.02;;
22632;SDS011;11483;55.828;37.488;2023-07-20T08:38:42;3.05;;;1.05;;
22632;SDS011;11483;55.828;37.488;2023-07-20T08:41:08;3.58;;;0.90;;
22632;SDS011;11483;55.828;37.488;2023-07-20T08:43:34;4.18;;;0.93;;
22632;SDS011;11483;55.828;37.488;2023-07-20T08:46:02;2.43;;;0.90;;
22632;SDS011;11483;55.828;37.488;2023-07-20T08:48:30;6.32;;;1.20;;
22632;SDS011;11483;55.828;37.488;2023-07-20T08:50:56;1.73;;;1.00;;
22632;SDS011;11483;55.828;37.488;2023-07-20T08:53:25;8.38;;;1.80;;
22632;SDS011;11483;55.828;37.488;2023-07-20T08:55:52;3.08;;;1.17;;
22632;SDS011;11483;55.828;37.488;2023-07-20T08:58:18;3.42;;;1.15;;
22632;SDS011;11483;55.828;37.488;2023-07-20T09:00:45;2.25;;;1.05;;
22632;SDS011;11483;55.828;37.488;2023-07-20T09:03:16;9.40;;;1.13;;
22632;SDS011;11483;55.828;37.488;2023-07-20T09:05:42;3.80;;;1.15;;
22632;SDS011;11483;55.828;37.488;2023-07-20T09:08:09;3.17;;;1.57;;
22632;SDS011;11483;55.828;37.488;2023-07-20T09:10:35;3.92;;;1.85;;
22632;SDS011;11483;55.828;37.488;2023-07-20T09:13:01;2.80;;;1.23;;
22632;SDS011;11483;55.828;37.488;2023-07-20T09:15:28;2.25;;;1.00;;
22632;SDS011;11483;55.828;37.488;2023-07-20T09:17:55;2.10;;;1.08;;
22632;SDS011;11483;55.828;37.488;2023-07-20T09:20:20;2.22;;;1.20;;
22632;SDS011;11483;55.828;37.488;2023-07-20T09:22:46;2.28;;;1.15;;
22632;SDS011;11483;55.828;37.488;2023-07-20T09:25:13;2.08;;;1.10;;
22632;SDS011;11483;55.828;37.488;2023-07-20T09:27:45;1.90;;;1.27;;
22632;SDS011;11483;55.828;37.488;2023-07-20T09:30:13;3.58;;;1.25;;
22632;SDS011;11483;55.828;37.488;2023-07-20T09:32:41;0.90;;;0.85;;
22632;SDS011;11483;55.828;37.488;2023-07-20T09:35:12;1.90;;;1.30;;
22632;SDS011;11483;55.828;37.488;2023-07-20T09:37:46;4.75;;;1.30;;
22632;SDS011;11483;55.828;37.488;2023-07-20T09:40:16;1.05;;;0.90;;
22632;SDS011;11483;55.828;37.488;2023-07-20T09:42:43;5.07;;;1.20;;
22632;SDS011;11483;55.828;37.488;2023-07-20T09:45:10;7.97;;;1.02;;
22632;SDS011;11483;55.828;37.488;2023-07-20T09:47:37;7.15;;;1.10;;
22632;SDS011;11483;55.828;37.488;2023-07-20T09:50:03;1.52;;;1.15;;
22632;SDS011;11483;55.828;37.488;2023-07-20T09:52:36;4.65;;;1.38;;
22632;SDS011;11483;55.828;37.488;2023-07-20T09:55:05;5.32;;;1.45;;
22632;SDS011;11483;55.828;37.488;2023-07-20T09:57:34;5.00;;;1.50;;
22632;SDS011;11483;55.828;37.488;2023-07-20T10:00:02;3.60;;;1.60;;
22632;SDS011;11483;55.828;37.488;2023-07-20T10:05:02;6.28;;;1.48;;
22632;SDS011;11483;55.828;37.488;2023-07-20T10:07:30;4.40;;;1.37;;
22632;SDS011;11483;55.828;37.488;2023-07-20T10:09:56;6.00;;;1.50;;
22632;SDS011;11483;55.828;37.488;2023-07-20T10:12:24;3.22;;;1.42;;
22632;SDS011;11483;55.828;37.488;2023-07-20T10:14:54;3.60;;;1.30;;
22632;SDS011;11483;55.828;37.488;2023-07-20T10:17:36;2.80;;;1.20;;
22632;SDS011;11483;55.828;37.488;2023-07-20T10:20:14;2.70;;;1.20;;
22632;SDS011;11483;55.828;37.488;2023-07-20T10:22:45;2.03;;;1.10;;
22632;SDS011;11483;55.828;37.488;2023-07-20T10:25:15;3.67;;;1.20;;
22632;SDS011;11483;55.828;37.488;2023-07-20T10:27:44;3.45;;;1.20;;
22632;SDS011;11483;55.828;37.488;2023-07-20T10:30:10;3.03;;;1.40;;
22632;SDS011;11483;55.828;37.488;2023-07-20T10:32:37;3.33;;;1.55;;
22632;SDS011;11483;55.828;37.488;2023-07-20T10:35:11;5.13;;;1.25;;
22632;SDS011;11483;55.828;37.488;2023-07-20T10:37:46;2.07;;;1.20;;
22632;SDS011;11483;55.828;37.488;2023-07-20T10:43:05;1.60;;;1.10;;
22632;SDS011;11483;55.828;37.488;2023-07-20T10:45:51;3.50;;;1.20;;
22632;SDS011;11483;55.828;37.488;2023-07-20T10:51:29;3.60;;;1.27;;
22632;SDS011;11483;55.828;37.488;2023-07-20T10:53:45;3.83;;;1.30;;
22632;SDS011;11483;55.828;37.488;2023-07-20T10:56:14;5.13;;;1.52;;
22632;SDS011;11483;55.828;37.488;2023-07-20T10:58:44;3.97;;;1.58;;
22632;SDS011;11483;55.828;37.488;2023-07-20T11:01:13;3.37;;;1.40;;
22632;SDS011;11483;55.828;37.488;2023-07-20T11:03:40;5.60;;;1.50;;
22632;SDS011;11483;55.828;37.488;2023-07-20T11:06:48;7.60;;;1.70;;
22632;SDS011;11483;55.828;37.488;2023-07-20T11:09:09;4.88;;;1.70;;
22632;SDS011;11483;55.828;37.488;2023-07-20T11:11:37;4.90;;;1.50;;
22632;SDS011;11483;55.828;37.488;2023-07-20T11:14:04;5.07;;;1.60;;
22632;SDS011;11483;55.828;37.488;2023-07-20T11:19:06;3.80;;;1.23;;
22632;SDS011;11483;55.828;37.488;2023-07-20T11:21:53;4.20;;;1.20;;
22632;SDS011;11483;55.828;37.488;2023-07-20T11:24:21;2.45;;;1.02;;
22632;SDS011;11483;55.828;37.488;2023-07-20T11:26:50;4.30;;;1.00;;
22632;SDS011;11483;55.828;37.488;2023-07-20T11:29:18;3.83;;;0.95;;
22632;SDS011;11483;55.828;37.488;2023-07-20T11:31:46;2.57;;;1.20;;
22632;SDS011;11483;55.828;37.488;2023-07-20T11:34:19;3.92;;;1.23;;
22632;SDS011;11483;55.828;37.488;2023-07-20T11:36:47;3.92;;;1.30;;
22632;SDS011;11483;55.828;37.488;2023-07-20T11:39:18;5.95;;;1.40;;
22632;SDS011;11483;55.828;37.488;2023-07-20T11:41:47;3.75;;;1.30;;
22632;SDS011;11483;55.828;37.488;2023-07-20T11:44:18;2.70;;;1.40;;
22632;SDS011;11483;55.828;37.488;2023-07-20T11:47:10;6.78;;;1.70;;
22632;SDS011;11483;55.828;37.488;2023-07-20T11:52:08;4.18;;;1.17;;
22632;SDS011;11483;55.828;37.488;2023-07-20T11:54:40;2.50;;;1.00;;
22632;SDS011;11483;55.828;37.488;2023-07-20T11:57:07;6.53;;;1.23;;
22632;SDS011;11483;55.828;37.488;2023-07-20T11:59:52;5.32;;;1.27;;
22632;SDS011;11483;55.828;37.488;2023-07-20T12:02:26;2.80;;;1.00;;
22632;SDS011;11483;55.828;37.488;2023-07-20T12:04:56;1.50;;;0.90;;
22632;SDS011;11483;55.828;37.488;2023-07-20T12:07:26;2.27;;;0.90;;
22632;SDS011;11483;55.828;37.488;2023-07-20T12:12:42;2.33;;;0.85;;
22632;SDS011;11483;55.828;37.488;2023-07-20T12:17:51;2.13;;;1.00;;
22632;SDS011;11483;55.828;37.488;2023-07-20T12:20:34;6.13;;;1.10;;
22632;SDS011;11483;55.828;37.488;2023-07-20T12:23:02;1.40;;;1.00;;
22632;SDS011;11483;55.828;37.488;2023-07-20T12:25:42;3.38;;;1.25;;
22632;SDS011;11483;55.828;37.488;2023-07-20T12:28:11;4.00;;;1.30;;
22632;SDS011;11483;55.828;37.488;2023-07-20T12:30:42;4.35;;;1.30;;
22632;SDS011;11483;55.828;37.488;2023-07-20T12:33:09;7.53;;;1.67;;
22632;SDS011;11483;55.828;37.488;2023-07-20T12:35:37;6.82;;;1.10;;
22632;SDS011;11483;55.828;37.488;2023-07-20T12:38:03;3.25;;;1.35;;
22632;SDS011;11483;55.828;37.488;2023-07-20T12:40:30;4.53;;;1.17;;
22632;SDS011;11483;55.828;37.488;2023-07-20T12:42:56;1.50;;;1.00;;
22632;SDS011;11483;55.828;37.488;2023-07-20T12:45:23;2.22;;;1.10;;
22632;SDS011;11483;55.828;37.488;2023-07-20T12:47:49;6.20;;;1.20;;
22632;SDS011;11483;55.828;37.488;2023-07-20T12:50:15;8.52;;;1.60;;
22632;SDS011;11483;55.828;37.488;2023-07-20T12:52:40;7.60;;;1.40;;
22632;SDS011;11483;55.828;37.488;2023-07-20T12:55:07;2.67;;;1.40;;
22632;SDS011;11483;55.828;37.488;2023-07-20T12:57:34;3.60;;;1.10;;
22632;SDS011;11483;55.828;37.488;2023-07-20T13:00:01;3.25;;;1.40;;
22632;SDS011;11483;55.828;37.488;2023-07-20T13:02:29;4.20;;;1.30;;
22632;SDS011;11483;55.828;37.488;2023-07-20T13:04:57;5.45;;;1.30;;
22632;SDS011;11483;55.828;37.488;2023-07-20T13:07:32;5.22;;;1.23;;
22632;SDS011;11483;55.828;37.488;2023-07-20T13:10:00;3.03;;;1.10;;
22632;SDS011;11483;55.828;37.488;2023-07-20T13:12:30;11.85;;;1.42;;
22632;SDS011;11483;55.828;37.488;2023-07-20T13:14:57;4.82;;;1.35;;
22632;SDS011;11483;55.828;37.488;2023-07-20T13:17:28;4.93;;;1.55;;
22632;SDS011;11483;55.828;37.488;2023-07-20T13:19:54;2.65;;;1.35;;
22632;SDS011;11483;55.828;37.488;2023-07-20T13:22:21;3.40;;;1.10;;
22632;SDS011;11483;55.828;37.488;2023-07-20T13:24:48;3.08;;;1.25;;
22632;SDS011;11483;55.828;37.488;2023-07-20T13:27:15;2.40;;;1.13;;
22632;SDS011;11483;55.828;37.488;2023-07-20T13:29:42;5.97;;;1.30;;
22632;SDS011;11483;55.828;37.488;2023-07-20T13:32:08;4.90;;;1.40;;
22632;SDS011;11483;55.828;37.488;2023-07-20T13:34:35;3.72;;;1.27;;
22632;SDS011;11483;55.828;37.488;2023-07-20T13:37:01;3.50;;;1.27;;
22632;SDS011;11483;55.828;37.488;2023-07-20T13:39:27;2.30;;;1.30;;
22632;SDS011;11483;55.828;37.488;2023-07-20T13:41:53;4.00;;;1.15;;
22632;SDS011;11483;55.828;37.488;2023-07-20T13:44:20;2.95;;;1.17;;
22632;SDS011;11483;55.828;37.488;2023-07-20T13:46:46;2.42;;;1.00;;
22632;SDS011;11483;55.828;37.488;2023-07-20T13:49:12;2.05;;;1.10;;
22632;SDS011;11483;55.828;37.488;2023-07-20T13:51:39;2.35;;;1.17;;
22632;SDS011;11483;55.828;37.488;2023-07-20T13:54:06;5.50;;;1.15;;
22632;SDS011;11483;55.828;37.488;2023-07-20T13:56:32;2.65;;;1.27;;
22632;SDS011;11483;55.828;37.488;2023-07-20T13:58:58;4.83;;;1.30;;
22632;SDS011;11483;55.828;37.488;2023-07-20T14:01:23;6.33;;;1.20;;
22632;SDS011;11483;55.828;37.488;2023-07-20T14:03:52;2.45;;;1.30;;
22632;SDS011;11483;55.828;37.488;2023-07-20T14:06:19;2.58;;;1.17;;
22632;SDS011;11483;55.828;37.488;2023-07-20T14:08:45;3.85;;;1.10;;
22632;SDS011;11483;55.828;37.488;2023-07-20T14:11:18;1.83;;;1.20;;
22632;SDS011;11483;55.828;37.488;2023-07-20T14:13:44;7.60;;;1.33;;
22632;SDS011;11483;55.828;37.488;2023-07-20T14:16:10;4.80;;;1.40;;
22632;SDS011;11483;55.828;37.488;2023-07-20T14:18:36;2.58;;;1.40;;
22632;SDS011;11483;55.828;37.488;2023-07-20T14:21:02;5.63;;;1.60;;
22632;SDS011;11483;55.828;37.488;2023-07-20T14:23:30;3.25;;;1.20;;
22632;SDS011;11483;55.828;37.488;2023-07-20T14:25:56;3.58;;;1.20;;
22632;SDS011;11483;55.828;37.488;2023-07-20T14:28:22;1.88;;;1.30;;
22632;SDS011;11483;55.828;37.488;2023-07-20T14:30:48;1.33;;;1.02;;
22632;SDS011;11483;55.828;37.488;2023-07-20T14:55:11;5.82;;;1.45;;
22632;SDS011;11483;55.828;37.488;2023-07-20T14:57:37;2.65;;;1.20;;
22632;SDS011;11483;55.828;37.488;2023-07-20T15:00:03;2.80;;;1.40;;
22632;SDS011;11483;55.828;37.488;2023-07-20T15:02:38;2.70;;;1.30;;
22632;SDS011;11483;55.828;37.488;2023-07-20T15:05:09;7.33;;;1.50;;
22632;SDS011;11483;55.828;37.488;2023-07-20T15:07:36;3.15;;;1.20;;
22632;SDS011;11483;55.828;37.488;2023-07-20T15:10:02;2.03;;;1.30;;
22632;SDS011;11483;55.828;37.488;2023-07-20T15:12:29;2.08;;;1.20;;
22632;SDS011;11483;55.828;37.488;2023-07-20T15:15:06;2.10;;;1.08;;
22632;SDS011;11483;55.828;37.488;2023-07-20T15:17:33;4.13;;;1.25;;
22632;SDS011;11483;55.828;37.488;2023-07-20T15:20:03;3.72;;;1.30;;
22632;SDS011;11483;55.828;37.488;2023-07-20T15:22:31;4.47;;;1.23;;
22632;SDS011;11483;55.828;37.488;2023-07-20T15:24:58;2.33;;;1.23;;
22632;SDS011;11483;55.828;37.488;2023-07-20T15:27:25;6.87;;;1.60;;